createdAt,value
2018-09-27T00:01:01.797Z,63.29
2018-09-27T00:04:26.410Z,63.92
2018-09-27T00:07:51.009Z,64.86
2018-09-27T00:11:15.522Z,65.40
2018-09-27T00:14:39.993Z,65.87
2018-09-27T00:18:04.521Z,65.52
2018-09-27T00:21:28.982Z,66.92
2018-09-27T00:24:53.439Z,66.70
2018-09-27T00:28:17.927Z,67.07
2018-09-27T00:31:42.424Z,67.31
2018-09-27T00:35:06.986Z,67.09
2018-09-27T00:38:31.581Z,66.25
2018-09-27T00:41:56.070Z,65.98
2018-09-27T00:45:20.483Z,65.85
2018-09-27T00:48:44.958Z,65.86
2018-09-27T00:52:09.423Z,66.63
2018-09-27T00:55:33.953Z,65.16
2018-09-27T00:58:58.396Z,63.23
2018-09-27T01:02:22.831Z,63.23
2018-09-27T01:05:47.264Z,62.57
2018-09-27T01:09:11.962Z,61.70
2018-09-27T01:12:36.454Z,61.25
2018-09-27T01:16:00.956Z,62.50
2018-09-27T01:19:25.415Z,63.64
2018-09-27T01:22:49.915Z,62.98
2018-09-27T01:26:14.368Z,63.85
2018-09-27T01:29:38.798Z,64.55
2018-09-27T01:33:03.238Z,64.65
2018-09-27T01:36:27.677Z,64.37
2018-09-27T01:39:52.145Z,64.76
2018-09-27T01:43:16.562Z,65.68
2018-09-27T01:46:41.007Z,66.30
2018-09-27T01:50:05.452Z,66.43
2018-09-27T01:53:29.910Z,67.30
2018-09-27T01:56:54.364Z,66.86
2018-09-27T02:00:18.799Z,67.01
2018-09-27T02:03:43.233Z,67.25
2018-09-27T02:07:07.787Z,67.95
2018-09-27T02:10:32.251Z,68.03
2018-09-27T02:13:56.692Z,67.74
2018-09-27T02:17:21.138Z,68.37
2018-09-27T02:20:45.602Z,68.61
2018-09-27T02:24:09.988Z,68.43
2018-09-27T02:27:34.448Z,67.33
2018-09-27T02:30:58.903Z,67.92
2018-09-27T02:34:23.335Z,68.17
2018-09-27T02:37:47.800Z,67.62
2018-09-27T02:41:12.217Z,68.17
2018-09-27T02:44:36.756Z,68.58
2018-09-27T02:48:01.224Z,69.70
2018-09-27T02:51:25.726Z,69.80
2018-09-27T02:54:50.146Z,70.50
2018-09-27T02:58:14.599Z,70.42
2018-09-27T03:01:39.022Z,70.54
2018-09-27T03:05:03.551Z,69.62
2018-09-27T03:08:28.182Z,68.54
2018-09-27T03:11:52.663Z,68.50
2018-09-27T03:15:17.110Z,68.25
2018-09-27T03:18:41.616Z,67.63
2018-09-27T03:22:06.170Z,66.55
2018-09-27T03:25:30.668Z,65.90
2018-09-27T03:28:55.203Z,66.34
2018-09-27T03:32:19.645Z,65.66
2018-09-27T03:35:44.098Z,65.66
2018-09-27T03:39:10.004Z,66.21
2018-09-27T03:42:34.416Z,66.20
2018-09-27T03:45:58.839Z,65.16
2018-09-27T03:49:23.456Z,65.05
2018-09-27T03:52:47.942Z,65.43
2018-09-27T03:56:12.393Z,65.37
2018-09-27T03:59:36.854Z,64.96
2018-09-27T04:03:01.337Z,64.91
2018-09-27T04:06:25.819Z,64.10
2018-09-27T04:09:50.289Z,64.74
2018-09-27T04:13:14.691Z,64.34
2018-09-27T04:16:39.102Z,65.37
2018-09-27T04:20:03.564Z,64.45
2018-09-27T04:23:28.020Z,64.84
2018-09-27T04:26:52.438Z,64.04
2018-09-27T04:30:16.957Z,64.33
2018-09-27T04:33:41.483Z,65.57
2018-09-27T04:37:05.845Z,64.49
2018-09-27T04:40:30.501Z,63.95
2018-09-27T04:43:54.995Z,64.57
2018-09-27T04:47:19.447Z,64.55
2018-09-27T04:50:44.024Z,64.28
2018-09-27T04:54:08.568Z,64.93
2018-09-27T04:57:32.955Z,64.95
2018-09-27T05:00:57.365Z,64.50
2018-09-27T05:04:21.903Z,64.87
2018-09-27T05:07:46.657Z,64.49
2018-09-27T05:11:11.082Z,64.05
2018-09-27T05:14:35.562Z,64.85
2018-09-27T05:18:00.024Z,64.03
2018-09-27T05:21:24.465Z,64.58
2018-09-27T05:24:48.963Z,64.89
2018-09-27T05:28:13.421Z,64.57
2018-09-27T05:31:37.948Z,65.32
2018-09-27T05:35:02.481Z,65.02
2018-09-27T05:38:26.997Z,64.69
2018-09-27T05:41:51.473Z,65.05
2018-09-27T05:45:15.928Z,63.92
2018-09-27T05:48:40.343Z,64.33
2018-09-27T05:52:04.841Z,64.46
2018-09-27T05:55:29.283Z,64.47
2018-09-27T05:58:53.725Z,63.67
2018-09-27T06:02:18.140Z,63.70
2018-09-27T06:05:42.799Z,63.95
2018-09-27T06:09:11.424Z,63.26
2018-09-27T06:12:35.956Z,63.98
2018-09-27T06:16:00.402Z,64.04
2018-09-27T06:19:24.908Z,64.37
2018-09-27T06:22:49.308Z,64.42
2018-09-27T06:26:13.843Z,63.25
2018-09-27T06:29:38.346Z,63.14
2018-09-27T06:33:02.995Z,64.04
2018-09-27T06:36:27.543Z,63.85
2018-09-27T06:39:52.169Z,63.04
2018-09-27T06:43:16.690Z,63.52
2018-09-27T06:46:41.131Z,64.33
2018-09-27T06:50:05.653Z,62.69
2018-09-27T06:53:30.128Z,63.05
2018-09-27T06:56:54.593Z,63.32
2018-09-27T07:00:19.057Z,62.70
2018-09-27T07:03:43.714Z,61.41
2018-09-27T07:07:08.756Z,61.26
2018-09-27T07:10:33.212Z,60.17
2018-09-27T07:13:57.711Z,60.00
2018-09-27T07:17:22.303Z,60.24
2018-09-27T07:20:49.920Z,59.90
2018-09-27T07:24:14.266Z,59.33
2018-09-27T07:27:38.715Z,58.98
2018-09-27T07:31:03.379Z,59.16
2018-09-27T07:34:27.854Z,58.93
2018-09-27T07:37:52.420Z,58.15
2018-09-27T07:41:16.889Z,58.58
2018-09-27T07:44:41.361Z,58.14
2018-09-27T07:48:05.992Z,57.99
2018-09-27T07:51:30.448Z,57.35
2018-09-27T07:54:55.044Z,57.42
2018-09-27T07:58:19.444Z,57.56
2018-09-27T08:01:43.880Z,57.17
2018-09-27T08:05:08.489Z,56.64
2018-09-27T08:08:32.975Z,56.11
2018-09-27T08:11:57.589Z,55.10
2018-09-27T08:15:21.928Z,54.97
2018-09-27T08:18:46.332Z,54.80
2018-09-27T08:22:10.833Z,54.66
2018-09-27T08:25:35.398Z,54.26
2018-09-27T08:28:59.874Z,54.02
2018-09-27T08:32:24.296Z,54.33
2018-09-27T08:35:48.806Z,54.34
2018-09-27T08:39:13.615Z,52.40
2018-09-27T08:42:38.077Z,52.29
2018-09-27T08:46:02.531Z,52.25
2018-09-27T08:49:27.006Z,51.69
2018-09-27T08:52:51.603Z,50.67
2018-09-27T08:56:16.275Z,49.42
2018-09-27T08:59:42.314Z,49.10
2018-09-27T09:03:06.900Z,49.28
2018-09-27T09:06:31.328Z,49.69
2018-09-27T09:09:55.837Z,48.03
2018-09-27T09:13:20.318Z,47.65
2018-09-27T09:16:44.799Z,48.10
2018-09-27T09:20:09.488Z,47.42
2018-09-27T09:23:34.039Z,47.17
2018-09-27T09:26:58.483Z,46.42
2018-09-27T09:30:22.943Z,45.25
2018-09-27T09:33:47.402Z,44.03
2018-09-27T09:37:11.876Z,43.28
2018-09-27T09:40:36.345Z,40.61
2018-09-27T09:44:00.799Z,37.99
2018-09-27T09:47:25.344Z,33.35
2018-09-27T09:50:49.783Z,31.35
2018-09-27T09:54:14.194Z,27.67
2018-09-27T09:57:38.662Z,26.38
2018-09-27T10:01:03.166Z,24.26
2018-09-27T10:04:27.640Z,24.12
2018-09-27T10:07:52.132Z,24.13
2018-09-27T10:11:16.628Z,23.15
2018-09-27T10:14:41.295Z,21.48
2018-09-27T10:18:05.924Z,21.96
2018-09-27T10:21:30.440Z,22.25
2018-09-27T10:24:54.834Z,21.77
2018-09-27T10:28:19.325Z,22.50
2018-09-27T10:31:43.856Z,21.00
2018-09-27T10:35:08.433Z,21.38
2018-09-27T10:38:32.959Z,22.37
2018-09-27T10:41:57.397Z,20.75
2018-09-27T10:45:21.819Z,20.27
2018-09-27T10:48:46.290Z,21.06
2018-09-27T10:52:10.815Z,20.95
2018-09-27T10:55:35.301Z,19.13
2018-09-27T10:58:59.962Z,19.02
2018-09-27T11:02:24.424Z,19.93
2018-09-27T11:05:48.964Z,18.47
2018-09-27T11:09:13.474Z,19.13
2018-09-27T11:12:37.873Z,18.64
2018-09-27T11:16:02.314Z,19.09
2018-09-27T11:19:26.871Z,17.51
2018-09-27T11:22:51.349Z,17.22
2018-09-27T11:26:15.818Z,17.10
2018-09-27T11:29:45.319Z,17.11
2018-09-27T11:33:09.844Z,16.75
2018-09-27T11:36:34.235Z,17.09
2018-09-27T11:39:58.681Z,18.61
2018-09-27T11:43:23.173Z,18.40
2018-09-27T11:46:47.631Z,19.34
2018-09-27T11:50:12.100Z,18.77
2018-09-27T11:53:36.584Z,18.87
2018-09-27T11:57:01.073Z,19.53
2018-09-27T12:00:25.546Z,17.50
2018-09-27T12:03:50.038Z,17.21
2018-09-27T12:10:48.103Z,18.05
2018-09-27T12:14:13.008Z,15.17
2018-09-27T12:17:37.467Z,15.56
2018-09-27T12:21:02.042Z,14.03
2018-09-27T12:24:26.565Z,14.30
2018-09-27T12:27:50.980Z,13.16
2018-09-27T12:31:15.383Z,11.67
2018-09-27T12:34:39.893Z,11.67
2018-09-27T12:38:04.332Z,10.41
2018-09-27T12:41:28.868Z,9.78
2018-09-27T12:44:53.352Z,9.23
2018-09-27T12:48:18.782Z,9.08
2018-09-27T12:51:43.328Z,8.53
2018-09-27T12:55:07.742Z,9.56
2018-09-27T12:58:32.238Z,10.52
2018-09-27T13:01:56.845Z,11.93
2018-09-27T13:05:21.152Z,10.86
2018-09-27T13:08:45.718Z,9.92
2018-09-27T13:12:10.336Z,9.25
2018-09-27T13:15:34.784Z,9.18
2018-09-27T13:18:59.337Z,9.26
2018-09-27T13:22:23.913Z,9.75
2018-09-27T13:25:48.593Z,8.85
2018-09-27T13:29:13.113Z,10.01
2018-09-27T13:32:37.702Z,9.92
2018-09-27T13:36:02.296Z,10.05
2018-09-27T13:39:26.858Z,10.56
2018-09-27T13:42:51.533Z,10.74
2018-09-27T13:46:15.991Z,10.07
2018-09-27T13:49:40.640Z,10.52
2018-09-27T13:53:05.139Z,10.25
2018-09-27T13:56:29.762Z,10.90
2018-09-27T13:59:54.288Z,10.96
2018-09-27T14:03:18.821Z,11.70
2018-09-27T14:06:43.346Z,10.96
2018-09-27T14:10:07.864Z,13.10
2018-09-27T14:13:32.372Z,9.82
2018-09-27T14:16:56.904Z,9.75
2018-09-27T14:20:21.498Z,11.57
2018-09-27T14:23:45.936Z,11.66
2018-09-27T14:27:10.532Z,11.72
2018-09-27T14:30:35.206Z,12.57
2018-09-27T14:33:59.831Z,11.48
2018-09-27T14:37:24.332Z,11.96
2018-09-27T14:40:48.876Z,11.84
2018-09-27T14:44:13.332Z,12.74
2018-09-27T14:47:37.834Z,11.56
2018-09-27T14:51:02.307Z,11.36
2018-09-27T14:54:26.786Z,11.44
2018-09-27T14:57:51.270Z,11.82
2018-09-27T15:01:15.778Z,11.28
2018-09-27T15:04:40.238Z,12.08
2018-09-27T15:08:04.703Z,13.03
2018-09-27T15:11:29.243Z,12.02
2018-09-27T15:14:53.695Z,11.87
2018-09-27T15:18:18.414Z,10.72
2018-09-27T15:21:46.453Z,11.66
2018-09-27T15:25:10.909Z,11.79
2018-09-27T15:28:35.388Z,11.66
2018-09-27T15:31:59.966Z,10.69
2018-09-27T15:35:24.426Z,12.46
2018-09-27T15:38:48.972Z,11.42
2018-09-27T15:42:13.533Z,12.25
2018-09-27T15:45:38.005Z,12.27
2018-09-27T15:49:02.431Z,11.97
2018-09-27T15:52:26.944Z,11.69
2018-09-27T15:55:51.491Z,11.64
2018-09-27T15:59:22.642Z,12.02
2018-09-27T16:02:47.155Z,13.04
2018-09-27T16:06:11.689Z,13.96
2018-09-27T16:09:36.537Z,15.18
2018-09-27T16:13:01.067Z,18.10
2018-09-27T16:16:25.489Z,20.41
2018-09-27T16:19:50.849Z,22.87
2018-09-27T16:23:16.425Z,25.59
2018-09-27T16:26:41.826Z,24.94
2018-09-27T16:30:07.757Z,26.21
2018-09-27T16:33:32.530Z,29.71
2018-09-27T16:36:57.596Z,30.63
2018-09-27T16:40:22.232Z,29.14
2018-09-27T16:43:47.080Z,28.96
2018-09-27T16:47:12.008Z,29.36
2018-09-27T16:50:43.669Z,32.81
2018-09-27T16:54:08.173Z,34.42
2018-09-27T16:57:32.638Z,34.90
2018-09-27T17:00:57.097Z,35.47
2018-09-27T17:04:21.599Z,36.87
2018-09-27T17:07:46.090Z,38.08
2018-09-27T17:11:10.648Z,37.32
2018-09-27T17:14:35.156Z,38.25
2018-09-27T17:17:59.621Z,39.06
2018-09-27T17:21:24.580Z,39.46
2018-09-27T17:24:49.269Z,38.85
2018-09-27T17:28:13.829Z,40.42
2018-09-27T17:31:38.454Z,40.76
2018-09-27T17:35:02.863Z,40.69
2018-09-27T17:38:27.387Z,41.89
2018-09-27T17:41:51.832Z,43.36
2018-09-27T17:45:16.282Z,43.43
2018-09-27T17:48:40.860Z,45.33
2018-09-27T17:52:05.376Z,44.11
2018-09-27T17:55:29.821Z,45.64
2018-09-27T17:58:54.409Z,45.70
2018-09-27T18:02:18.886Z,46.17
2018-09-27T18:05:43.500Z,45.96
2018-09-27T18:09:11.591Z,46.81
2018-09-27T18:12:36.017Z,47.29
2018-09-27T18:16:00.500Z,47.38
2018-09-27T18:19:24.979Z,47.46
2018-09-27T18:22:49.402Z,48.41
2018-09-27T18:26:13.823Z,48.18
2018-09-27T18:29:38.241Z,49.29
2018-09-27T18:33:02.605Z,49.48
2018-09-27T18:36:27.001Z,49.81
2018-09-27T18:39:51.618Z,50.75
2018-09-27T18:43:16.122Z,50.87
2018-09-27T18:46:40.616Z,50.95
2018-09-27T18:50:05.408Z,50.69
2018-09-27T18:53:29.821Z,51.46
2018-09-27T18:56:54.253Z,51.57
2018-09-27T19:00:18.728Z,51.93
2018-09-27T19:03:43.147Z,53.33
2018-09-27T19:07:07.680Z,53.44
2018-09-27T19:10:32.212Z,53.98
2018-09-27T19:13:56.746Z,54.03
2018-09-27T19:17:21.186Z,53.53
2018-09-27T19:20:45.643Z,53.97
2018-09-27T19:24:10.137Z,55.13
2018-09-27T19:27:34.548Z,54.99
2018-09-27T19:30:58.966Z,55.81
2018-09-27T19:34:23.498Z,55.41
2018-09-27T19:37:47.984Z,56.04
2018-09-27T19:41:12.488Z,55.40
2018-09-27T19:44:36.992Z,55.89
2018-09-27T19:48:01.479Z,56.50
2018-09-27T19:51:25.885Z,56.94
2018-09-27T19:54:50.342Z,56.70
2018-09-27T19:58:14.842Z,57.76
2018-09-27T20:01:39.287Z,58.39
2018-09-27T20:05:03.734Z,58.04
2018-09-27T20:08:28.212Z,58.27
2018-09-27T20:11:52.602Z,58.97
2018-09-27T20:15:17.062Z,58.89
2018-09-27T20:18:41.491Z,58.43
2018-09-27T20:22:08.090Z,60.69
2018-09-27T20:25:32.461Z,61.41
2018-09-27T20:28:56.945Z,62.30
2018-09-27T20:32:22.077Z,62.65
2018-09-27T20:35:46.598Z,63.42
2018-09-27T20:39:11.065Z,63.51
2018-09-27T20:42:35.488Z,64.88
2018-09-27T20:45:59.971Z,64.58
2018-09-27T20:49:24.438Z,66.02
2018-09-27T20:52:49.248Z,64.91
2018-09-27T20:56:13.726Z,64.52
2018-09-27T20:59:38.223Z,64.62
2018-09-27T21:03:02.753Z,64.63
2018-09-27T21:06:27.126Z,65.30
2018-09-27T21:09:51.533Z,65.11
2018-09-27T21:13:16.055Z,65.74
2018-09-27T21:16:41.502Z,65.77
2018-09-27T21:20:06.172Z,65.58
2018-09-27T21:23:30.631Z,65.91
2018-09-27T21:26:55.154Z,66.10
2018-09-27T21:30:19.608Z,65.86
2018-09-27T21:33:44.095Z,65.52
2018-09-27T21:37:09.574Z,66.39
2018-09-27T21:40:33.998Z,66.55
2018-09-27T21:43:58.410Z,67.37
2018-09-27T21:47:22.797Z,66.63
2018-09-27T21:50:47.263Z,67.27
2018-09-27T21:54:11.713Z,67.68
2018-09-27T22:13:05.594Z,67.46
2018-09-27T22:16:30.032Z,68.14
2018-09-27T22:19:54.464Z,68.52
2018-09-27T22:23:18.889Z,68.35
2018-09-27T22:26:43.273Z,68.30
2018-09-27T22:30:08.553Z,67.97
2018-09-27T22:33:33.006Z,68.31
2018-09-27T22:36:57.439Z,68.27
2018-09-27T22:40:21.808Z,68.72
2018-09-27T22:43:46.272Z,68.42
2018-09-27T22:47:10.710Z,68.57
2018-09-27T22:50:35.126Z,69.45
2018-09-27T22:53:59.585Z,69.69
2018-09-27T22:57:24.024Z,69.65
2018-09-27T23:00:48.501Z,69.44
2018-09-27T23:04:13.078Z,70.47
2018-09-27T23:07:37.489Z,70.80
2018-09-27T23:11:02.007Z,70.03
2018-09-27T23:14:26.445Z,70.34
2018-09-27T23:17:50.861Z,70.33
2018-09-27T23:21:15.334Z,70.63
2018-09-27T23:24:39.766Z,70.33
2018-09-27T23:28:04.196Z,70.60
2018-09-27T23:31:28.847Z,70.25
2018-09-27T23:34:53.262Z,70.52
2018-09-27T23:38:17.664Z,71.21
2018-09-27T23:41:42.136Z,70.67
2018-09-27T23:45:06.596Z,70.93
2018-09-27T23:48:31.031Z,71.44
2018-09-27T23:51:55.467Z,71.33
2018-09-27T23:55:19.919Z,71.89
2018-09-27T23:58:44.356Z,71.34
